メインページ
METAR-TAF:

METAR-TAF

空港 :

大湊警備府

むつ, 日本

緯度: 41-14N, 経度: 141-08E, 海抜: 7m

現時点の気象観測

当レポートは6時間56分前の04:56(UTC)に作成
西の風 18kt、最大32ktの突風を伴う、西/南西から北西の間で変化する
気温 18°C
湿度 42%
気圧 1015 hPa
視程10km以上
高度4000ftの雲はほとんどない

METAR: RJSO 200456Z 28018G32KT 240V320 9999 FEW040 18/05 Q1015 RMK 1CU040 A2999

時間: 20:52 (11:52 UTC)


TAF: 見つかりません

4,000以上の空港の気象観測と天気予報(METAR報とTAF報)

利用可能な観測所は地図上に黄色い丸と赤い丸で示す。

丸の上にカーソルを重ねると観測所名を参照できる。

次にクリックすると気象観測と天気予報を参照できる。

マップの切り替え:黒色「×」印の緑ボタンをクリックして拡大、「-」印の緑ボタンをクリックして縮小、緑色の三角印をクリックして隣りの地図に切り替え


METAR-TAF: